createdAt,value
2018-09-24T00:00:17.690Z,8.00
2018-09-24T00:02:46.150Z,8.00
2018-09-24T00:05:15.412Z,8.00
2018-09-24T00:07:44.003Z,8.00
2018-09-24T00:10:12.620Z,7.90
2018-09-24T00:12:41.171Z,7.90
2018-09-24T00:15:09.653Z,7.90
2018-09-24T00:17:38.318Z,7.90
2018-09-24T00:20:07.034Z,7.90
2018-09-24T00:22:35.680Z,7.90
2018-09-24T00:25:04.433Z,7.80
2018-09-24T00:27:33.404Z,7.90
2018-09-24T00:30:02.080Z,7.80
2018-09-24T00:32:30.749Z,7.80
2018-09-24T00:34:59.440Z,7.80
2018-09-24T00:37:28.376Z,7.80
2018-09-24T00:39:57.000Z,7.70
2018-09-24T00:42:25.645Z,7.70
2018-09-24T00:44:54.421Z,7.70
2018-09-24T00:47:23.061Z,7.80
2018-09-24T00:49:51.770Z,7.80
2018-09-24T00:52:20.351Z,7.80
2018-09-24T00:54:49.000Z,7.80
2018-09-24T00:57:17.590Z,7.80
2018-09-24T00:59:46.140Z,7.70
2018-09-24T01:02:14.721Z,7.70
2018-09-24T01:04:43.378Z,7.70
2018-09-24T01:07:11.962Z,7.60
2018-09-24T01:09:40.734Z,7.70
2018-09-24T01:12:09.349Z,7.70
2018-09-24T01:14:38.798Z,7.70
2018-09-24T01:17:07.469Z,7.70
2018-09-24T01:19:36.017Z,7.70
2018-09-24T01:22:04.590Z,7.70
2018-09-24T01:24:33.191Z,7.70
2018-09-24T01:27:01.738Z,7.70
2018-09-24T01:29:30.793Z,7.60
2018-09-24T01:31:59.365Z,7.60
2018-09-24T01:34:27.921Z,7.60
2018-09-24T01:36:56.542Z,7.60
2018-09-24T01:39:25.132Z,7.60
2018-09-24T01:41:53.714Z,7.50
2018-09-24T01:44:22.283Z,7.50
2018-09-24T01:46:51.082Z,7.50
2018-09-24T01:49:19.710Z,7.40
2018-09-24T01:51:48.488Z,7.40
2018-09-24T01:54:17.829Z,7.30
2018-09-24T01:56:46.603Z,7.30
2018-09-24T01:59:15.243Z,7.30
2018-09-24T02:01:47.009Z,7.20
2018-09-24T02:04:16.110Z,7.20
2018-09-24T02:06:44.741Z,7.20
2018-09-24T02:09:13.402Z,7.20
2018-09-24T02:11:42.541Z,7.20
2018-09-24T02:14:11.090Z,7.10
2018-09-24T02:16:39.758Z,7.20
2018-09-24T02:19:08.452Z,7.20
2018-09-24T02:21:37.083Z,7.20
2018-09-24T02:24:06.472Z,7.20
2018-09-24T02:26:35.061Z,7.20
2018-09-24T02:29:03.582Z,7.20
2018-09-24T02:31:39.920Z,7.10
2018-09-24T02:34:10.053Z,7.10
2018-09-24T02:36:38.667Z,7.10
2018-09-24T02:39:08.152Z,7.10
2018-09-24T02:41:37.040Z,7.10
2018-09-24T02:44:05.606Z,7.10
2018-09-24T02:46:39.181Z,7.10
2018-09-24T02:49:07.731Z,7.10
2018-09-24T02:51:36.818Z,7.00
2018-09-24T02:54:05.413Z,7.00
2018-09-24T02:56:35.164Z,7.00
2018-09-24T02:59:03.838Z,7.00
2018-09-24T03:01:33.503Z,7.00
2018-09-24T03:04:02.545Z,7.00
2018-09-24T03:06:36.913Z,7.00
2018-09-24T03:09:10.209Z,7.00
2018-09-24T03:11:38.799Z,7.00
2018-09-24T03:14:07.730Z,6.90
2018-09-24T03:16:36.909Z,6.90
2018-09-24T03:19:05.721Z,6.80
2018-09-24T03:21:34.504Z,6.80
2018-09-24T03:24:03.266Z,6.70
2018-09-24T03:26:31.889Z,6.60
2018-09-24T03:29:00.466Z,6.60
2018-09-24T03:31:30.705Z,6.60
2018-09-24T03:33:59.290Z,6.50
2018-09-24T03:36:27.901Z,6.50
2018-09-24T03:38:56.602Z,6.50
2018-09-24T03:41:25.194Z,6.50
2018-09-24T03:43:53.769Z,6.60
2018-09-24T03:46:22.307Z,6.60
2018-09-24T03:48:50.968Z,6.60
2018-09-24T03:51:19.552Z,6.60
2018-09-24T03:53:48.374Z,6.60
2018-09-24T03:56:17.083Z,6.60
2018-09-24T03:58:45.825Z,6.60
2018-09-24T04:01:14.414Z,6.50
2018-09-24T04:03:43.301Z,6.50
2018-09-24T04:06:17.170Z,6.50
2018-09-24T04:08:51.122Z,6.40
2018-09-24T04:11:24.922Z,6.40
2018-09-24T04:13:58.634Z,6.40
2018-09-24T04:16:32.756Z,6.40
2018-09-24T04:19:06.889Z,6.30
2018-09-24T04:21:40.718Z,6.50
2018-09-24T04:24:14.694Z,6.50
2018-09-24T04:26:48.581Z,6.50
2018-09-24T04:29:22.480Z,6.70
2018-09-24T04:31:56.370Z,6.60
2018-09-24T04:34:30.389Z,6.60
2018-09-24T04:37:04.415Z,6.60
2018-09-24T04:39:38.508Z,6.50
2018-09-24T04:42:12.437Z,6.50
2018-09-24T04:44:46.344Z,6.50
2018-09-24T04:47:20.240Z,6.50
2018-09-24T04:49:54.235Z,6.40
2018-09-24T04:52:28.072Z,6.50
2018-09-24T04:55:01.968Z,6.50
2018-09-24T04:57:35.873Z,6.50
2018-09-24T05:00:10.333Z,6.50
2018-09-24T05:02:44.124Z,6.50
2018-09-24T05:05:18.125Z,6.50
2018-09-24T05:07:52.522Z,6.50
2018-09-24T05:10:26.531Z,6.50
2018-09-24T05:13:00.407Z,6.50
2018-09-24T05:15:34.358Z,6.40
2018-09-24T05:18:08.299Z,6.40
2018-09-24T05:20:42.092Z,6.40
2018-09-24T05:23:15.982Z,6.30
2018-09-24T05:25:50.709Z,6.30
2018-09-24T05:28:24.608Z,6.30
2018-09-24T05:30:58.391Z,6.30
2018-09-24T05:33:32.351Z,6.20
2018-09-24T05:36:06.105Z,6.20
2018-09-24T05:38:40.230Z,6.20
2018-09-24T05:41:14.076Z,6.20
2018-09-24T05:43:47.785Z,6.20
2018-09-24T05:46:21.630Z,6.20
2018-09-24T05:48:55.728Z,6.10
2018-09-24T05:51:30.528Z,6.20
2018-09-24T05:54:04.501Z,6.20
2018-09-24T05:56:38.308Z,6.20
2018-09-24T05:59:12.113Z,6.30
2018-09-24T06:01:45.881Z,6.30
2018-09-24T06:04:19.682Z,6.30
2018-09-24T06:07:00.917Z,6.30
2018-09-24T06:09:35.602Z,6.30
2018-09-24T06:12:09.437Z,6.30
2018-09-24T06:17:17.771Z,6.50
2018-09-24T06:19:51.448Z,6.60
2018-09-24T06:22:25.283Z,6.60
2018-09-24T06:24:59.136Z,6.60
2018-09-24T06:27:33.191Z,6.70
2018-09-24T06:30:07.042Z,6.90
2018-09-24T06:32:40.779Z,7.00
2018-09-24T06:35:14.932Z,7.00
2018-09-24T06:37:48.803Z,7.00
2018-09-24T06:40:22.650Z,7.00
2018-09-24T06:42:56.444Z,7.00
2018-09-24T06:45:30.403Z,7.10
2018-09-24T06:48:04.309Z,7.10
2018-09-24T06:50:39.004Z,7.20
2018-09-24T06:53:13.070Z,7.20
2018-09-24T06:55:47.105Z,7.20
2018-09-24T06:58:21.706Z,7.20
2018-09-24T07:00:55.759Z,7.20
2018-09-24T07:03:29.591Z,7.30
2018-09-24T07:06:03.693Z,7.30
2018-09-24T07:08:37.654Z,7.40
2018-09-24T07:11:11.902Z,7.50
2018-09-24T07:13:45.723Z,7.70
2018-09-24T07:16:19.800Z,7.80
2018-09-24T07:18:53.653Z,8.10
2018-09-24T07:21:27.565Z,8.40
2018-09-24T07:24:01.449Z,8.60
2018-09-24T07:26:35.578Z,8.50
2018-09-24T07:29:09.532Z,8.40
2018-09-24T07:31:43.542Z,8.40
2018-09-24T07:34:17.329Z,8.60
2018-09-24T07:36:51.405Z,8.60
2018-09-24T07:39:25.361Z,8.70
2018-09-24T07:41:59.129Z,8.90
2018-09-24T07:44:33.229Z,8.80
2018-09-24T07:47:07.349Z,8.90
2018-09-24T07:49:41.193Z,8.90
2018-09-24T07:52:15.125Z,9.00
2018-09-24T07:54:49.145Z,9.00
2018-09-24T07:57:22.958Z,8.80
2018-09-24T07:59:57.070Z,8.80
2018-09-24T08:02:30.904Z,8.60
2018-09-24T08:05:04.929Z,8.80
2018-09-24T08:07:39.150Z,9.10
2018-09-24T08:10:13.234Z,9.10
2018-09-24T08:12:47.204Z,9.30
2018-09-24T08:15:21.771Z,9.30
2018-09-24T08:17:55.900Z,9.50
2018-09-24T08:20:29.889Z,9.80
2018-09-24T08:23:03.762Z,9.70
2018-09-24T08:25:38.275Z,9.60
2018-09-24T08:28:12.417Z,9.60
2018-09-24T08:30:46.301Z,9.90
2018-09-24T08:33:20.259Z,10.20
2018-09-24T08:35:54.873Z,10.70
2018-09-24T08:38:28.664Z,10.60
2018-09-24T08:41:03.194Z,10.80
2018-09-24T08:43:37.133Z,11.00
2018-09-24T08:46:11.403Z,11.00
2018-09-24T08:48:45.328Z,11.00
2018-09-24T08:51:19.397Z,11.10
2018-09-24T08:53:53.368Z,11.50
2018-09-24T08:56:27.273Z,11.70
2018-09-24T08:59:01.167Z,11.60
2018-09-24T09:01:35.120Z,12.00
2018-09-24T09:04:08.943Z,12.00
2018-09-24T09:06:42.861Z,12.10
2018-09-24T09:09:17.151Z,12.10
2018-09-24T09:11:51.145Z,12.50
2018-09-24T09:14:24.942Z,12.20
2018-09-24T09:16:58.826Z,12.30
2018-09-24T09:19:32.835Z,12.30
2018-09-24T09:22:06.693Z,12.40
2018-09-24T09:24:40.642Z,12.60
2018-09-24T09:27:14.685Z,13.30
2018-09-24T09:29:48.821Z,13.50
2018-09-24T09:32:22.712Z,13.50
2018-09-24T09:34:56.624Z,13.50
2018-09-24T09:37:30.521Z,13.80
2018-09-24T09:40:04.482Z,13.30
2018-09-24T09:42:38.302Z,13.40
2018-09-24T09:45:12.326Z,13.90
2018-09-24T09:47:46.173Z,14.00
2018-09-24T09:50:20.052Z,14.00
2018-09-24T09:52:54.014Z,14.00
2018-09-24T09:55:27.841Z,13.60
2018-09-24T09:58:01.697Z,13.70
2018-09-24T10:00:35.477Z,14.40
2018-09-24T10:03:09.532Z,14.20
2018-09-24T10:05:43.494Z,14.40
2018-09-24T10:08:17.322Z,14.50
2018-09-24T10:10:51.212Z,14.90
2018-09-24T10:13:25.205Z,15.30
2018-09-24T10:15:59.140Z,15.00
2018-09-24T10:18:32.942Z,15.00
2018-09-24T10:21:06.777Z,15.00
2018-09-24T10:23:40.669Z,15.00
2018-09-24T10:26:14.771Z,14.60
2018-09-24T10:28:48.573Z,14.70
2018-09-24T10:31:22.469Z,14.50
2018-09-24T10:33:56.474Z,14.80
2018-09-24T10:36:30.564Z,14.80
2018-09-24T10:39:04.544Z,15.00
2018-09-24T10:41:38.406Z,15.60
2018-09-24T10:44:12.629Z,14.90
2018-09-24T10:46:46.466Z,14.80
2018-09-24T10:49:20.501Z,14.80
2018-09-24T10:51:54.399Z,14.40
2018-09-24T10:54:28.280Z,14.10
2018-09-24T10:57:02.335Z,13.90
2018-09-24T10:59:37.062Z,14.00
2018-09-24T11:02:11.204Z,14.00
2018-09-24T11:04:45.116Z,14.70
2018-09-24T11:07:19.091Z,14.30
2018-09-24T11:09:53.137Z,14.30
2018-09-24T11:12:26.980Z,14.80
2018-09-24T11:15:00.671Z,15.20
2018-09-24T11:17:34.719Z,15.00
2018-09-24T11:20:08.526Z,15.40
2018-09-24T11:22:42.356Z,15.60
2018-09-24T11:25:16.239Z,16.00
2018-09-24T11:27:50.200Z,16.70
2018-09-24T11:30:24.152Z,16.40
2018-09-24T11:32:58.063Z,15.50
2018-09-24T11:35:32.067Z,15.90
2018-09-24T11:38:06.688Z,15.80
2018-09-24T11:40:40.631Z,15.90
2018-09-24T11:43:14.561Z,16.10
2018-09-24T11:45:48.505Z,15.90
2018-09-24T11:48:22.953Z,15.90
2018-09-24T11:50:56.734Z,15.80
2018-09-24T11:53:30.660Z,15.50
2018-09-24T11:56:04.621Z,14.80
2018-09-24T11:58:39.233Z,14.50
2018-09-24T12:01:13.502Z,14.30
2018-09-24T12:03:47.360Z,14.50
2018-09-24T12:06:21.452Z,13.90
2018-09-24T12:08:55.606Z,13.80
2018-09-24T12:11:29.558Z,13.60
2018-09-24T12:14:03.903Z,14.50
2018-09-24T12:16:37.888Z,15.30
2018-09-24T12:19:11.910Z,15.30
2018-09-24T12:21:45.853Z,15.80
2018-09-24T12:24:19.846Z,15.10
2018-09-24T12:26:53.838Z,14.10
2018-09-24T12:29:27.939Z,13.60
2018-09-24T12:32:01.895Z,13.40
2018-09-24T12:34:35.702Z,13.00
2018-09-24T12:37:09.828Z,13.20
2018-09-24T12:39:43.814Z,13.20
2018-09-24T12:42:17.846Z,13.40
2018-09-24T12:44:51.782Z,14.00
2018-09-24T12:47:25.638Z,14.50
2018-09-24T12:49:59.539Z,14.90
2018-09-24T12:52:33.374Z,15.30
2018-09-24T12:55:07.209Z,15.60
2018-09-24T12:57:41.037Z,16.00
2018-09-24T13:00:15.009Z,15.80
2018-09-24T13:02:48.858Z,16.00
2018-09-24T13:05:22.672Z,16.40
2018-09-24T13:07:56.725Z,16.40
2018-09-24T13:10:30.609Z,16.20
2018-09-24T13:13:04.478Z,16.20
2018-09-24T13:15:38.444Z,16.20
2018-09-24T13:18:12.202Z,16.30
2018-09-24T13:20:46.460Z,16.50
2018-09-24T13:23:21.244Z,16.00
2018-09-24T13:25:55.184Z,15.00
2018-09-24T13:28:29.533Z,14.90
2018-09-24T13:31:03.421Z,15.30
2018-09-24T13:33:37.505Z,14.60
2018-09-24T13:36:12.296Z,13.90
2018-09-24T13:38:46.123Z,13.40
2018-09-24T13:41:19.946Z,13.20
2018-09-24T13:43:53.793Z,14.20
2018-09-24T13:46:27.738Z,14.60
2018-09-24T13:49:01.571Z,14.90
2018-09-24T13:51:35.582Z,15.10
2018-09-24T13:54:09.442Z,14.20
2018-09-24T13:56:43.342Z,13.70
2018-09-24T13:59:17.193Z,14.20
2018-09-24T14:01:51.051Z,14.70
2018-09-24T14:04:25.213Z,14.80
2018-09-24T14:06:59.142Z,14.90
2018-09-24T14:09:33.209Z,15.20
2018-09-24T14:12:07.198Z,15.50
2018-09-24T14:14:40.924Z,15.50
2018-09-24T14:17:14.927Z,15.50
2018-09-24T14:19:48.923Z,15.70
2018-09-24T14:22:22.865Z,15.80
2018-09-24T14:24:56.824Z,15.60
2018-09-24T14:27:30.613Z,15.20
2018-09-24T14:30:04.521Z,15.00
2018-09-24T14:32:38.473Z,14.80
2018-09-24T14:35:12.766Z,14.40
2018-09-24T14:37:46.852Z,14.00
2018-09-24T14:40:20.729Z,13.80
2018-09-24T14:42:55.820Z,13.60
2018-09-24T14:45:29.805Z,13.30
2018-09-24T14:48:03.829Z,13.10
2018-09-24T14:50:38.062Z,13.20
2018-09-24T14:53:12.266Z,13.00
2018-09-24T14:55:46.066Z,12.80
2018-09-24T14:58:20.162Z,12.80
2018-09-24T15:00:53.969Z,12.60
2018-09-24T15:03:27.971Z,12.60
2018-09-24T15:06:02.446Z,12.60
2018-09-24T15:08:36.353Z,12.80
2018-09-24T15:11:10.134Z,12.90
2018-09-24T15:13:44.159Z,12.90
2018-09-24T15:16:18.610Z,13.10
2018-09-24T15:18:52.648Z,13.00
2018-09-24T15:21:26.489Z,13.10
2018-09-24T15:24:00.564Z,13.00
2018-09-24T15:26:34.442Z,13.10
2018-09-24T15:29:08.452Z,13.10
2018-09-24T15:31:42.878Z,13.10
2018-09-24T15:34:16.842Z,13.10
2018-09-24T15:36:50.697Z,13.00
2018-09-24T15:39:24.416Z,13.00
2018-09-24T15:41:58.310Z,13.00
2018-09-24T15:44:32.345Z,12.90
2018-09-24T15:47:07.159Z,12.80
2018-09-24T15:49:41.266Z,12.80
2018-09-24T15:52:15.054Z,12.60
2018-09-24T15:54:49.007Z,12.40
2018-09-24T15:57:23.002Z,12.10
2018-09-24T15:59:56.809Z,12.10
2018-09-24T16:02:30.908Z,11.90
2018-09-24T16:05:05.761Z,11.70
2018-09-24T16:07:39.636Z,11.70
2018-09-24T16:10:13.602Z,11.60
2018-09-24T16:12:47.651Z,11.50
2018-09-24T16:15:21.670Z,11.40
2018-09-24T16:17:55.577Z,11.40
2018-09-24T16:20:29.390Z,11.30
2018-09-24T16:23:03.403Z,11.30
2018-09-24T16:25:37.313Z,11.10
2018-09-24T16:28:11.265Z,11.00
2018-09-24T16:30:45.268Z,10.90
2018-09-24T16:33:18.993Z,10.90
2018-09-24T16:35:53.085Z,10.90
2018-09-24T16:38:26.994Z,10.80
2018-09-24T16:41:01.150Z,10.80
2018-09-24T16:43:35.263Z,10.70
2018-09-24T16:46:09.265Z,10.60
2018-09-24T16:48:43.185Z,10.60
2018-09-24T16:51:17.257Z,10.50
2018-09-24T16:53:51.057Z,10.30
2018-09-24T16:56:25.056Z,10.20
2018-09-24T16:58:59.153Z,10.10
2018-09-24T17:01:33.089Z,10.00
2018-09-24T17:04:06.947Z,9.80
2018-09-24T17:06:41.512Z,9.60
2018-09-24T17:09:15.488Z,9.60
2018-09-24T17:11:49.610Z,9.50
2018-09-24T17:14:23.524Z,9.30
2018-09-24T17:16:57.522Z,9.10
2018-09-24T17:19:31.445Z,8.90
2018-09-24T17:22:05.282Z,8.70
2018-09-24T17:24:39.230Z,8.50
2018-09-24T17:27:13.534Z,8.50
2018-09-24T17:29:47.592Z,8.40
2018-09-24T17:32:21.493Z,8.20
2018-09-24T17:34:55.321Z,8.20
2018-09-24T17:37:29.154Z,8.10
2018-09-24T17:40:03.299Z,8.00
2018-09-24T17:42:37.173Z,7.90
2018-09-24T17:45:11.848Z,7.80
2018-09-24T17:47:45.805Z,7.80
2018-09-24T17:50:19.685Z,7.70
2018-09-24T17:52:53.646Z,7.70
2018-09-24T17:55:27.561Z,7.70
2018-09-24T17:58:01.620Z,7.60
2018-09-24T18:00:35.423Z,7.50
2018-09-24T18:03:10.125Z,7.50
2018-09-24T18:05:43.996Z,7.50
2018-09-24T18:08:18.114Z,7.50
2018-09-24T18:10:52.145Z,7.40
2018-09-24T18:13:26.135Z,7.40
2018-09-24T18:16:00.207Z,7.30
2018-09-24T18:18:34.128Z,7.30
2018-09-24T18:21:08.004Z,7.20
2018-09-24T18:23:41.857Z,6.90
2018-09-24T18:26:15.893Z,6.80
2018-09-24T18:28:50.527Z,6.60
2018-09-24T18:31:24.661Z,6.60
2018-09-24T18:33:58.749Z,6.50
2018-09-24T18:36:32.773Z,6.40
2018-09-24T18:39:06.869Z,6.40
2018-09-24T18:41:40.713Z,6.30
2018-09-24T18:44:14.716Z,6.40
2018-09-24T18:46:48.454Z,6.40
2018-09-24T18:49:22.432Z,6.40
2018-09-24T18:51:56.188Z,6.30
2018-09-24T18:54:30.209Z,6.30
2018-09-24T18:57:04.109Z,6.20
2018-09-24T18:59:38.101Z,6.20
2018-09-24T19:02:12.112Z,6.10
2018-09-24T19:04:46.114Z,6.00
2018-09-24T19:07:19.981Z,6.00
2018-09-24T19:09:53.957Z,5.80
2018-09-24T19:12:27.820Z,5.80
2018-09-24T19:15:01.821Z,5.70
2018-09-24T19:17:35.959Z,5.70
2018-09-24T19:20:09.967Z,5.60
2018-09-24T19:22:44.689Z,5.60
2018-09-24T19:25:18.744Z,5.60
2018-09-24T19:27:52.789Z,5.60
2018-09-24T19:30:26.770Z,5.50
2018-09-24T19:33:00.798Z,5.50
2018-09-24T19:35:35.000Z,5.40
2018-09-24T19:38:08.975Z,5.40
2018-09-24T19:40:43.001Z,5.30
2018-09-24T19:43:17.028Z,5.20
2018-09-24T19:45:50.969Z,5.10
2018-09-24T19:48:24.742Z,5.10
2018-09-24T19:50:58.610Z,5.10
2018-09-24T19:53:32.652Z,5.10
2018-09-24T19:56:06.746Z,5.10
2018-09-24T19:58:40.600Z,5.00
2018-09-24T20:01:14.583Z,4.90
2018-09-24T20:03:48.509Z,4.90
2018-09-24T20:06:23.552Z,4.80
2018-09-24T20:08:57.503Z,4.70
2018-09-24T20:11:31.377Z,4.70
2018-09-24T20:14:05.297Z,4.60
2018-09-24T20:16:39.226Z,4.60
2018-09-24T20:19:13.349Z,4.60
2018-09-24T20:21:47.473Z,4.60
2018-09-24T20:24:22.345Z,4.50
2018-09-24T20:26:56.351Z,4.40
2018-09-24T20:29:30.386Z,4.40
2018-09-24T20:32:04.382Z,4.40
2018-09-24T20:34:38.201Z,4.30
2018-09-24T20:37:12.077Z,4.30
2018-09-24T20:39:46.042Z,4.30
2018-09-24T20:42:20.193Z,4.30
2018-09-24T20:44:54.097Z,4.30
2018-09-24T20:47:27.901Z,4.20
2018-09-24T20:50:02.006Z,4.20
2018-09-24T20:52:36.035Z,4.20
2018-09-24T20:55:10.202Z,4.20
2018-09-24T20:57:44.196Z,4.20
2018-09-24T21:00:18.286Z,4.10
2018-09-24T21:02:52.098Z,4.00
2018-09-24T21:05:26.177Z,4.00
2018-09-24T21:08:00.238Z,4.00
2018-09-24T21:10:34.056Z,4.00
2018-09-24T21:13:08.073Z,4.00
2018-09-24T21:15:42.106Z,3.90
2018-09-24T21:18:15.986Z,3.90
2018-09-24T21:20:50.009Z,3.90
2018-09-24T21:23:23.969Z,3.90
2018-09-24T21:25:58.121Z,3.80
2018-09-24T21:28:32.291Z,3.80
2018-09-24T21:31:06.497Z,3.80
2018-09-24T21:33:40.488Z,3.70
2018-09-24T21:36:14.383Z,3.70
2018-09-24T21:38:48.294Z,3.70
2018-09-24T21:41:22.437Z,3.80
2018-09-24T21:43:56.179Z,3.70
2018-09-24T21:46:30.345Z,3.70
2018-09-24T21:49:04.174Z,3.70
2018-09-24T21:51:38.109Z,3.80
2018-09-24T21:54:12.036Z,3.80
2018-09-24T21:56:45.878Z,3.70
2018-09-24T21:59:19.902Z,3.60
2018-09-24T22:01:53.810Z,3.50
2018-09-24T22:04:27.620Z,3.40
2018-09-24T22:07:01.564Z,3.30
2018-09-24T22:09:35.660Z,3.40
2018-09-24T22:12:09.738Z,3.30
2018-09-24T22:14:43.783Z,3.40
2018-09-24T22:17:17.708Z,3.40
2018-09-24T22:19:51.674Z,3.30
2018-09-24T22:22:25.580Z,3.20
2018-09-24T22:24:59.359Z,3.10
2018-09-24T22:27:33.286Z,3.10
2018-09-24T22:30:07.089Z,3.10
2018-09-24T22:32:41.034Z,3.10
2018-09-24T22:35:14.953Z,3.00
2018-09-24T22:37:48.764Z,3.00
2018-09-24T22:40:22.437Z,2.90
2018-09-24T22:42:56.431Z,2.90
2018-09-24T22:45:30.324Z,2.90
2018-09-24T22:48:04.201Z,2.90
2018-09-24T22:50:38.081Z,2.90
2018-09-24T22:53:11.845Z,2.90
2018-09-24T22:55:45.849Z,2.90
2018-09-24T22:58:19.904Z,2.80
2018-09-24T23:00:53.678Z,2.80
2018-09-24T23:03:27.590Z,2.80
2018-09-24T23:06:02.111Z,2.80
2018-09-24T23:08:36.580Z,2.70
2018-09-24T23:11:10.417Z,2.80
2018-09-24T23:13:44.377Z,2.70
2018-09-24T23:16:18.222Z,2.60
2018-09-24T23:18:52.077Z,2.60
2018-09-24T23:21:26.049Z,2.60
2018-09-24T23:23:59.962Z,2.70
2018-09-24T23:26:33.769Z,2.80
2018-09-24T23:31:41.489Z,3.10
2018-09-24T23:34:15.381Z,3.10
2018-09-24T23:39:23.606Z,3.30
2018-09-24T23:41:57.313Z,3.20
2018-09-24T23:44:31.013Z,3.20
2018-09-24T23:47:05.053Z,3.10
2018-09-24T23:49:38.996Z,3.10
2018-09-24T23:52:12.861Z,3.10
2018-09-24T23:54:46.945Z,3.00
2018-09-24T23:57:20.937Z,3.10
2018-09-24T23:59:54.968Z,3.00
